createdAt,value
2023-05-02T00:01:26.909Z,95.89
2023-05-02T00:03:28.125Z,95.91
2023-05-02T00:07:30.669Z,95.96
2023-05-02T00:11:33.296Z,95.8
2023-05-02T00:13:35.155Z,95.84
2023-05-02T00:17:38.006Z,95.75
2023-05-02T00:19:39.835Z,96.38
2023-05-02T00:23:43.410Z,96.36
2023-05-02T00:27:46.346Z,96.64
2023-05-02T00:29:56.218Z,96.61
2023-05-02T00:33:51.711Z,96.25
2023-05-02T00:35:53.515Z,95.87
2023-05-02T00:39:56.791Z,95.98
2023-05-02T00:44:00.128Z,95.99
2023-05-02T00:46:01.176Z,96.38
2023-05-02T00:50:04.777Z,95.51
2023-05-02T00:54:06.973Z,94.76
2023-05-02T00:56:08.878Z,94.43
2023-05-02T01:00:11.850Z,94.78
2023-05-02T01:02:13.104Z,94.89
2023-05-02T01:06:15.690Z,95.13
2023-05-02T01:10:18.274Z,95.47
2023-05-02T01:12:19.410Z,95.55
2023-05-02T01:16:23.062Z,95.7
2023-05-02T01:18:24.471Z,95.68
2023-05-02T01:22:27.236Z,95.78
2023-05-02T01:26:30.170Z,95.79
2023-05-02T01:28:32.049Z,95.88
2023-05-02T01:32:35.768Z,96.11
2023-05-02T01:36:38.798Z,96.22
2023-05-02T01:38:40.333Z,96.17
2023-05-02T01:42:43.244Z,96.12
2023-05-02T01:44:45.151Z,96.26
2023-05-02T01:48:48.505Z,96.31
2023-05-02T01:52:51.339Z,96.37
2023-05-02T01:54:53.050Z,96.37
2023-05-02T01:58:56.014Z,96.37
2023-05-02T02:00:57.232Z,96.35
2023-05-02T02:04:59.714Z,96.42
2023-05-02T02:09:03.183Z,96.34
2023-05-02T02:11:04.608Z,96.34
2023-05-02T02:15:08.381Z,96.22
2023-05-02T02:19:11.336Z,96.32
2023-05-02T02:21:13.016Z,96.33
2023-05-02T02:25:16.391Z,95.58
2023-05-02T02:27:18.048Z,95.22
2023-05-02T02:31:21.310Z,95.51
2023-05-02T02:35:23.980Z,96.2
2023-05-02T02:37:25.777Z,96.58
2023-05-02T02:41:29.027Z,96.7
2023-05-02T02:43:30.904Z,96.58
2023-05-02T02:47:34.756Z,96.63
2023-05-02T02:51:36.964Z,96.41
2023-05-02T02:53:38.348Z,96.39
2023-05-02T02:57:41.681Z,96.23
2023-05-02T03:01:45.097Z,96.58
2023-05-02T03:03:46.279Z,96.49
2023-05-02T03:07:49.377Z,96.27
2023-05-02T03:09:50.409Z,96.24
2023-05-02T03:11:51.805Z,96.33
2023-05-02T03:13:53.523Z,96.44
2023-05-02T03:17:55.777Z,96.04
2023-05-02T03:19:57.710Z,95.98
2023-05-02T03:24:00.386Z,95.67
2023-05-02T03:26:02.100Z,95.84
2023-05-02T03:30:05.360Z,95.79
2023-05-02T03:34:08.974Z,95.78
2023-05-02T03:36:09.914Z,95.63
2023-05-02T03:40:12.783Z,95.41
2023-05-02T03:44:16.667Z,95.63
2023-05-02T03:46:17.629Z,95.52
2023-05-02T03:50:20.941Z,95.39
2023-05-02T03:52:22.790Z,95.59
2023-05-02T03:54:24.683Z,95.66
2023-05-02T03:56:25.710Z,95.91
2023-05-02T04:00:28.395Z,95.91
2023-05-02T04:02:29.648Z,95.86
2023-05-02T04:04:30.836Z,95.64
2023-05-02T04:06:32.326Z,95.66
2023-05-02T04:08:33.368Z,95.76
2023-05-02T04:12:36.611Z,95.86
2023-05-02T04:14:37.718Z,95.88
2023-05-02T04:16:39.441Z,95.5
2023-05-02T04:18:41.345Z,95.91
2023-05-02T04:22:44.295Z,96.17
2023-05-02T04:24:45.532Z,96.25
2023-05-02T04:28:49.031Z,96.35
2023-05-02T04:32:52.118Z,96.37
2023-05-02T04:34:53.098Z,96.39
2023-05-02T04:38:56.214Z,96.49
2023-05-02T04:42:59.498Z,96.55
2023-05-02T04:45:01.008Z,96.42
2023-05-02T04:49:03.265Z,96.48
2023-05-02T04:51:05.088Z,96.56
2023-05-02T04:55:08.723Z,96.49
2023-05-02T04:57:10.501Z,96.47
2023-05-02T04:59:12.249Z,96.35
2023-05-02T05:01:13.751Z,96.27
2023-05-02T05:05:16.379Z,96.09
2023-05-02T05:07:18.081Z,96.05
2023-05-02T05:11:21.221Z,95.92
2023-05-02T05:15:24.108Z,95.41
2023-05-02T05:17:25.238Z,95.17
2023-05-02T05:21:28.831Z,95.17
2023-05-02T05:25:31.546Z,95.07
2023-05-02T05:27:33.211Z,95.13
2023-05-02T05:31:35.585Z,94.75
2023-05-02T05:33:37.200Z,94.43
2023-05-02T05:37:40.056Z,94.57
2023-05-02T05:41:43.323Z,94.29
2023-05-02T05:43:44.623Z,94.27
2023-05-02T05:47:47.369Z,94.33
2023-05-02T05:49:48.601Z,94.87
2023-05-02T05:53:52.253Z,95.06
2023-05-02T05:58:39.162Z,95.06
2023-05-02T06:02:42.366Z,94.64
2023-05-02T06:04:43.825Z,94.66
2023-05-02T06:08:46.097Z,94.23
2023-05-02T06:10:55.296Z,94.26
2023-05-02T06:14:50.146Z,94.13
2023-05-02T06:18:53.755Z,94.15
2023-05-02T06:20:55.522Z,93.74
2023-05-02T06:24:59.859Z,92.69
2023-05-02T06:27:00.982Z,92.26
2023-05-02T06:31:03.859Z,92.4
2023-05-02T06:35:06.258Z,92.89
2023-05-02T06:37:07.400Z,93.32
2023-05-02T06:41:11.032Z,91.68
2023-05-02T06:45:13.235Z,89.39
2023-05-02T06:47:14.550Z,89.01
2023-05-02T06:51:17.793Z,88.16
2023-05-02T06:53:19.100Z,87.89
2023-05-02T06:55:20.189Z,89.27
2023-05-02T06:57:21.632Z,88.66
2023-05-02T07:01:24.558Z,86.26
2023-05-02T07:03:25.843Z,86.4
2023-05-02T07:05:26.810Z,86.79
2023-05-02T07:07:28.700Z,86.28
2023-05-02T07:09:30.247Z,86.36
2023-05-02T07:13:32.761Z,83.92
2023-05-02T07:15:33.915Z,85.93
2023-05-02T07:17:35.288Z,85.4
2023-05-02T07:19:36.292Z,83.62
2023-05-02T07:23:39.240Z,83.31
2023-05-02T07:25:40.894Z,82.76
2023-05-02T07:29:42.965Z,80.98
2023-05-02T07:33:46.388Z,79.43
2023-05-02T07:35:47.943Z,79.25
2023-05-02T07:39:50.866Z,78.11
2023-05-02T07:43:52.669Z,77.86
2023-05-02T07:45:53.547Z,78.64
2023-05-02T07:49:55.914Z,78.06
2023-05-02T07:51:57.531Z,76.89
2023-05-02T07:55:59.957Z,77.48
2023-05-02T08:00:03.215Z,77.49
2023-05-02T08:02:04.247Z,77.75
2023-05-02T08:06:07.728Z,77.67
2023-05-02T08:08:08.955Z,77.16
2023-05-02T08:12:12.815Z,76.36
2023-05-02T08:16:15.504Z,75.76
2023-05-02T08:18:16.503Z,76.3
2023-05-02T08:22:18.862Z,73.21
2023-05-02T08:26:21.305Z,74.15
2023-05-02T08:28:22.476Z,73.27
2023-05-02T08:32:25.306Z,71.68
2023-05-02T08:34:27.324Z,68.77
2023-05-02T08:38:30.513Z,71.22
2023-05-02T08:42:33.001Z,68.79
2023-05-02T08:44:34.544Z,65.43
2023-05-02T08:48:37.109Z,68.16
2023-05-02T08:50:37.905Z,68.92
2023-05-02T08:54:40.441Z,65.02
2023-05-02T08:58:43.852Z,65.41
2023-05-02T09:00:44.911Z,66.34
2023-05-02T09:04:47.361Z,66.82
2023-05-02T09:08:49.717Z,67.06
2023-05-02T09:10:51.352Z,62.29
2023-05-02T09:14:53.565Z,67.62
2023-05-02T09:16:55.076Z,63.58
2023-05-02T09:18:56.201Z,64.14
2023-05-02T09:20:57.876Z,59.76
2023-05-02T09:25:00.624Z,60.44
2023-05-02T09:27:02.048Z,61.29
2023-05-02T09:29:03.096Z,63.32
2023-05-02T09:31:04.158Z,61.07
2023-05-02T09:33:05.853Z,60.65
2023-05-02T09:37:08.675Z,58.13
2023-05-02T09:41:11.498Z,59.05
2023-05-02T09:43:12.783Z,59.78
2023-05-02T09:47:15.553Z,62.04
2023-05-02T09:49:17.286Z,59.64
2023-05-02T09:53:20.189Z,61.53
2023-05-02T09:57:23.397Z,64.85
2023-05-02T09:59:25.091Z,59.24
2023-05-02T10:03:27.610Z,61.47
2023-05-02T10:07:30.905Z,55.98
2023-05-02T10:09:32.409Z,58.92
2023-05-02T10:13:35.296Z,58.58
2023-05-02T10:15:36.530Z,58.36
2023-05-02T10:19:39.689Z,57.81
2023-05-02T10:23:42.642Z,62.07
2023-05-02T10:25:44.152Z,60.66
2023-05-02T10:29:46.782Z,61.58
2023-05-02T10:31:47.909Z,62.29
2023-05-02T10:35:50.711Z,63.81
2023-05-02T10:39:54.048Z,61.32
2023-05-02T10:41:55.326Z,58.62
2023-05-02T10:45:57.752Z,57.37
2023-05-02T10:50:01.179Z,58.21
2023-05-02T10:52:02.064Z,56.05
2023-05-02T10:56:04.142Z,58.25
2023-05-02T10:58:06.413Z,58.97
2023-05-02T11:02:08.510Z,61.37
2023-05-02T11:06:10.719Z,60.98
2023-05-02T11:08:11.953Z,61.04
2023-05-02T11:12:14.831Z,59.53
2023-05-02T11:14:16.525Z,58.56
2023-05-02T11:18:18.369Z,58.04
2023-05-02T11:22:20.848Z,57.74
2023-05-02T11:24:22.181Z,56.3
2023-05-02T11:28:25.134Z,55.51
2023-05-02T11:32:28.236Z,55.87
2023-05-02T11:34:29.660Z,53.22
2023-05-02T11:38:32.420Z,53.48
2023-05-02T11:40:34.114Z,52.91
2023-05-02T11:42:35.882Z,51.61
2023-05-02T11:44:37.546Z,52.34
2023-05-02T11:48:40.347Z,51.66
2023-05-02T11:50:44.053Z,54.85
2023-05-02T11:52:42.989Z,53.73
2023-05-02T11:54:44.719Z,54.3
2023-05-02T11:56:45.996Z,55.52
2023-05-02T12:00:48.711Z,53.94
2023-05-02T12:04:51.750Z,49.02
2023-05-02T12:06:52.949Z,50.72
2023-05-02T12:10:55.569Z,48
2023-05-02T12:17:00.127Z,48.51
2023-05-02T12:21:02.311Z,52.57
2023-05-02T12:23:03.489Z,54.08
2023-05-02T12:27:06.066Z,53.18
2023-05-02T12:31:08.156Z,52.42
2023-05-02T12:33:09.621Z,51.95
2023-05-02T12:37:11.931Z,50.48
2023-05-02T12:39:13.497Z,50.02
2023-05-02T12:43:58.984Z,49.99
2023-05-02T12:48:01.315Z,51.15
2023-05-02T12:50:02.565Z,50.18
2023-05-02T12:54:04.578Z,51.67
2023-05-02T12:58:06.933Z,48.32
2023-05-02T13:00:08.383Z,51.02
2023-05-02T13:04:11.156Z,48.96
2023-05-02T13:08:13.983Z,46.7
2023-05-02T13:10:15.475Z,49.59
2023-05-02T13:14:17.825Z,47.48
2023-05-02T13:16:19.608Z,46.85
2023-05-02T13:20:22.836Z,44.48
2023-05-02T13:24:24.854Z,42.97
2023-05-02T13:26:25.694Z,43.44
2023-05-02T13:30:27.980Z,41.98
2023-05-02T13:32:29.703Z,42.41
2023-05-02T13:36:31.816Z,43.6
2023-05-02T13:40:34.244Z,44.03
2023-05-02T13:42:35.722Z,45.88
2023-05-02T13:46:38.457Z,45.48
2023-05-02T13:48:39.191Z,44.19
2023-05-02T13:52:41.136Z,43.72
2023-05-02T13:56:44.241Z,40.99
2023-05-02T14:45:17.346Z,42.69
2023-05-02T14:49:20.171Z,41.99
2023-05-02T14:51:21.613Z,41.73
2023-05-02T14:55:23.443Z,40.38
2023-05-02T14:57:24.339Z,42.28
2023-05-02T14:59:25.893Z,40.43
2023-05-02T15:01:26.961Z,41.52
2023-05-02T15:05:29.193Z,38.44
2023-05-02T15:07:30.363Z,40.84
2023-05-02T15:09:31.358Z,40.03
2023-05-02T15:11:32.324Z,40.79
2023-05-02T15:13:34.009Z,40.51
2023-05-02T15:17:35.970Z,40.23
2023-05-02T15:19:36.954Z,39.98
2023-05-02T15:21:37.969Z,40.46
2023-05-02T15:23:39.547Z,41.33
2023-05-02T15:27:42.165Z,39.17
2023-05-02T15:29:42.960Z,41.52
2023-05-02T15:33:45.950Z,43.27
2023-05-02T15:37:48.899Z,47.51
2023-05-02T15:39:50.289Z,48.52
2023-05-02T15:43:53.308Z,50.84
2023-05-02T15:47:56.528Z,54.63
2023-05-02T15:49:58.097Z,55.69
2023-05-02T15:54:00.055Z,56.02
2023-05-02T15:56:01.321Z,56.71
2023-05-02T16:00:04.524Z,56.18
2023-05-02T16:04:06.857Z,56.27
2023-05-02T16:06:08.675Z,55.33
2023-05-02T16:10:10.731Z,59.41
2023-05-02T16:12:11.656Z,56.9
2023-05-02T16:16:14.560Z,57.96
2023-05-02T16:20:16.929Z,54.63
2023-05-02T16:22:18.379Z,54.91
2023-05-02T16:26:20.253Z,56.55
2023-05-02T16:30:23.579Z,55.85
2023-05-02T16:32:24.564Z,55.15
2023-05-02T16:36:27.099Z,56.59
2023-05-02T16:38:28.484Z,55.42
2023-05-02T16:40:30.026Z,55.24
2023-05-02T16:42:31.681Z,52.72
2023-05-02T16:46:34.636Z,52.62
2023-05-02T16:48:35.626Z,51.12
2023-05-02T16:52:38.284Z,50.06
2023-05-02T16:54:39.511Z,50.36
2023-05-02T16:58:41.738Z,50
2023-05-02T17:02:45.202Z,51.71
2023-05-02T17:04:46.191Z,50.62
2023-05-02T17:08:49.326Z,51.29
2023-05-02T17:14:53.704Z,50.49
2023-05-02T17:18:56.824Z,51.92
2023-05-02T17:20:58.314Z,52.13
2023-05-02T17:25:00.136Z,56.07
2023-05-02T17:29:02.044Z,55.67
2023-05-02T17:31:03.544Z,55.6
2023-05-02T17:35:05.807Z,57.53
2023-05-02T17:37:07.448Z,57.8
2023-05-02T17:41:10.037Z,58.51
2023-05-02T17:43:11.381Z,59.07
2023-05-02T17:47:14.294Z,60.95
2023-05-02T17:51:17.485Z,60.16
2023-05-02T17:53:18.637Z,59.54
2023-05-02T17:57:21.600Z,61.38
2023-05-02T18:01:24.709Z,59.85
2023-05-02T18:03:26.298Z,59.89
2023-05-02T18:07:29.601Z,61.33
2023-05-02T18:09:31.446Z,61.88
2023-05-02T18:13:36.957Z,63.7
2023-05-02T18:17:37.406Z,65.11
2023-05-02T18:19:38.330Z,64.46
2023-05-02T18:23:41.690Z,65.5
2023-05-02T18:25:43.345Z,65.89
2023-05-02T18:29:46.249Z,66.66
2023-05-02T18:33:49.093Z,67.29
2023-05-02T18:35:50.093Z,67.52
2023-05-02T18:39:53.152Z,67.37
2023-05-02T18:43:55.316Z,68.03
2023-05-02T18:45:57.090Z,68.78
2023-05-02T18:49:59.827Z,69.7
2023-05-02T18:52:00.716Z,69.41
2023-05-02T18:56:02.911Z,70.6
2023-05-02T19:00:06.462Z,72.15
2023-05-02T19:02:07.807Z,72.65
2023-05-02T19:06:10.438Z,72.57
2023-05-02T19:08:12.027Z,73.01
2023-05-02T19:12:14.463Z,73.84
2023-05-02T19:16:17.169Z,73.82
2023-05-02T19:18:18.561Z,74.15
2023-05-02T19:22:21.290Z,74.58
2023-05-02T19:26:23.518Z,75.73
2023-05-02T19:27:07.350Z,75.59
2023-05-02T19:29:08.641Z,76.45
2023-05-02T19:31:09.588Z,76.37
2023-05-02T19:33:10.523Z,76.29
2023-05-02T19:37:13.652Z,76.48
2023-05-02T19:39:14.859Z,76.84
2023-05-02T19:43:17.720Z,76.46
2023-05-02T19:45:19.445Z,76.31
2023-05-02T19:49:22.596Z,76.07
2023-05-02T19:53:25.435Z,77.58
2023-05-02T19:55:27.396Z,77.54
2023-05-02T19:59:29.664Z,77.79
2023-05-02T20:01:30.864Z,78.21
2023-05-02T20:05:33.314Z,78.61
2023-05-02T20:09:36.499Z,79.08
2023-05-02T20:11:38.265Z,78.62
2023-05-02T20:15:41.041Z,79.31
2023-05-02T20:19:44.544Z,79.87
2023-05-02T20:21:46.092Z,79.36
2023-05-02T20:25:48.444Z,79.71
2023-05-02T20:27:50.152Z,79.2
2023-05-02T20:31:53.768Z,80.61
2023-05-02T20:35:55.554Z,81.02
2023-05-02T20:37:57.359Z,81.43
2023-05-02T20:42:00.787Z,81.79
2023-05-02T20:44:02.664Z,82.05
2023-05-02T20:48:05.589Z,82.27
2023-05-02T20:52:07.774Z,82.22
2023-05-02T20:54:09.311Z,82.17
2023-05-02T20:58:12.271Z,82.08
2023-05-02T21:02:15.646Z,82.48
2023-05-02T21:04:17.209Z,82.8
2023-05-02T21:08:20.321Z,82.54
2023-05-02T21:10:21.505Z,82.02
2023-05-02T21:14:24.373Z,82.87
2023-05-02T21:18:27.827Z,82.67
2023-05-02T21:20:29.032Z,81.19
2023-05-02T21:24:32.121Z,81.84
2023-05-02T21:26:34.071Z,80.8
2023-05-02T21:30:36.952Z,81.24
2023-05-02T21:34:40.492Z,80.77
2023-05-02T21:36:42.271Z,81.17
2023-05-02T21:40:44.639Z,81.14
2023-05-02T21:42:46.512Z,81.21
2023-05-02T21:46:49.835Z,82.05
2023-05-02T21:50:52.028Z,84.06
2023-05-02T21:52:53.589Z,84.64
2023-05-02T21:56:56.585Z,84.54
2023-05-02T22:00:59.338Z,85.16
2023-05-02T22:03:00.851Z,85.29
2023-05-02T22:07:03.230Z,84.83
2023-05-02T22:09:04.812Z,84.6
2023-05-02T22:13:08.275Z,84.29
2023-05-02T22:17:11.296Z,84.52
2023-05-02T22:19:12.717Z,84.69
2023-05-02T22:23:15.731Z,85.03
2023-05-02T22:27:18.135Z,85.94
2023-05-02T22:29:19.631Z,86.44
2023-05-02T22:33:22.448Z,85.81
2023-05-02T22:35:23.663Z,85.84
2023-05-02T22:37:24.685Z,85.81
2023-05-02T22:39:25.865Z,85.76
2023-05-02T22:43:28.966Z,85.59
2023-05-02T22:45:30.560Z,85.95
2023-05-02T22:49:33.549Z,85.79
2023-05-02T22:51:34.724Z,86.55
2023-05-02T22:55:36.932Z,86.06
2023-05-02T22:59:39.908Z,86.16
2023-05-02T23:01:41.229Z,86.04
2023-05-02T23:05:44.258Z,86.46
2023-05-02T23:07:45.660Z,86.57
2023-05-02T23:11:49.142Z,86.37
2023-05-02T23:15:51.348Z,85.85
2023-05-02T23:17:53.073Z,86.05
2023-05-02T23:21:55.923Z,86.32
2023-05-02T23:25:59.548Z,86.2
2023-05-02T23:28:01.154Z,86.1
2023-05-02T23:30:02.293Z,86.31
2023-05-02T23:32:03.519Z,86.48
2023-05-02T23:34:05.076Z,86.72
2023-05-02T23:38:08.049Z,86.82
2023-05-02T23:42:10.740Z,86.39
2023-05-02T23:44:11.861Z,86.79
2023-05-02T23:48:15.617Z,86.8
2023-05-02T23:50:17.024Z,86.69
2023-05-02T23:54:20.410Z,87.17
2023-05-02T23:58:23.839Z,87.42
